sensor_id;sensor_type;location;lat;lon;timestamp;P1;durP1;ratioP1;P2;durP2;ratioP2
21046;SDS011;10682;50.874;3.656;2023-11-18T00:00:02;18.97;;;8.20;;
21046;SDS011;10682;50.874;3.656;2023-11-18T00:02:37;16.90;;;6.87;;
21046;SDS011;10682;50.874;3.656;2023-11-18T00:05:05;15.03;;;7.67;;
21046;SDS011;10682;50.874;3.656;2023-11-18T00:07:34;14.83;;;7.30;;
21046;SDS011;10682;50.874;3.656;2023-11-18T00:10:01;19.97;;;8.43;;
21046;SDS011;10682;50.874;3.656;2023-11-18T00:12:30;19.07;;;8.33;;
21046;SDS011;10682;50.874;3.656;2023-11-18T00:14:58;20.20;;;8.43;;
21046;SDS011;10682;50.874;3.656;2023-11-18T00:17:24;20.00;;;8.30;;
21046;SDS011;10682;50.874;3.656;2023-11-18T00:19:51;25.20;;;9.33;;
21046;SDS011;10682;50.874;3.656;2023-11-18T00:22:20;25.67;;;8.80;;
21046;SDS011;10682;50.874;3.656;2023-11-18T00:24:47;25.27;;;8.40;;
21046;SDS011;10682;50.874;3.656;2023-11-18T00:27:18;21.53;;;8.10;;
21046;SDS011;10682;50.874;3.656;2023-11-18T00:29:45;25.47;;;7.53;;
21046;SDS011;10682;50.874;3.656;2023-11-18T00:32:12;15.47;;;6.97;;
21046;SDS011;10682;50.874;3.656;2023-11-18T00:34:39;20.00;;;7.07;;
21046;SDS011;10682;50.874;3.656;2023-11-18T00:37:07;16.20;;;7.10;;
21046;SDS011;10682;50.874;3.656;2023-11-18T00:39:34;20.13;;;7.93;;
21046;SDS011;10682;50.874;3.656;2023-11-18T00:42:04;27.67;;;6.90;;
21046;SDS011;10682;50.874;3.656;2023-11-18T00:44:32;18.13;;;6.73;;
21046;SDS011;10682;50.874;3.656;2023-11-18T00:46:59;14.17;;;7.33;;
21046;SDS011;10682;50.874;3.656;2023-11-18T00:49:27;23.53;;;6.53;;
21046;SDS011;10682;50.874;3.656;2023-11-18T00:51:54;14.20;;;5.77;;
21046;SDS011;10682;50.874;3.656;2023-11-18T00:54:21;22.67;;;6.20;;
21046;SDS011;10682;50.874;3.656;2023-11-18T00:56:48;25.17;;;5.87;;
21046;SDS011;10682;50.874;3.656;2023-11-18T00:59:15;22.50;;;6.20;;
21046;SDS011;10682;50.874;3.656;2023-11-18T01:01:42;22.60;;;5.33;;
21046;SDS011;10682;50.874;3.656;2023-11-18T01:04:10;17.63;;;5.87;;
21046;SDS011;10682;50.874;3.656;2023-11-18T01:06:37;22.47;;;6.30;;
21046;SDS011;10682;50.874;3.656;2023-11-18T01:09:04;21.57;;;6.10;;
21046;SDS011;10682;50.874;3.656;2023-11-18T01:11:33;25.73;;;5.97;;
21046;SDS011;10682;50.874;3.656;2023-11-18T01:14:02;15.33;;;5.40;;
21046;SDS011;10682;50.874;3.656;2023-11-18T01:16:29;21.23;;;5.77;;
21046;SDS011;10682;50.874;3.656;2023-11-18T01:18:56;14.13;;;4.87;;
21046;SDS011;10682;50.874;3.656;2023-11-18T01:21:23;23.67;;;5.30;;
21046;SDS011;10682;50.874;3.656;2023-11-18T01:23:50;19.03;;;5.40;;
21046;SDS011;10682;50.874;3.656;2023-11-18T01:26:17;14.17;;;4.73;;
21046;SDS011;10682;50.874;3.656;2023-11-18T01:28:45;19.60;;;4.90;;
21046;SDS011;10682;50.874;3.656;2023-11-18T01:31:13;17.50;;;4.73;;
21046;SDS011;10682;50.874;3.656;2023-11-18T01:33:40;18.77;;;5.07;;
21046;SDS011;10682;50.874;3.656;2023-11-18T01:36:08;19.40;;;5.00;;
21046;SDS011;10682;50.874;3.656;2023-11-18T01:38:36;16.93;;;4.73;;
21046;SDS011;10682;50.874;3.656;2023-11-18T01:41:04;18.93;;;4.67;;
21046;SDS011;10682;50.874;3.656;2023-11-18T01:43:33;14.90;;;4.83;;
21046;SDS011;10682;50.874;3.656;2023-11-18T01:46:03;16.60;;;4.50;;
21046;SDS011;10682;50.874;3.656;2023-11-18T01:48:37;12.37;;;4.30;;
21046;SDS011;10682;50.874;3.656;2023-11-18T01:51:06;11.10;;;3.83;;
21046;SDS011;10682;50.874;3.656;2023-11-18T01:53:36;16.20;;;4.83;;
21046;SDS011;10682;50.874;3.656;2023-11-18T01:56:08;17.17;;;4.77;;
21046;SDS011;10682;50.874;3.656;2023-11-18T01:58:35;10.77;;;4.20;;
21046;SDS011;10682;50.874;3.656;2023-11-18T02:01:03;14.37;;;4.03;;
21046;SDS011;10682;50.874;3.656;2023-11-18T02:03:37;15.73;;;4.20;;
21046;SDS011;10682;50.874;3.656;2023-11-18T02:06:05;15.37;;;4.50;;
21046;SDS011;10682;50.874;3.656;2023-11-18T02:08:42;14.93;;;4.40;;
21046;SDS011;10682;50.874;3.656;2023-11-18T02:11:25;13.00;;;4.50;;
21046;SDS011;10682;50.874;3.656;2023-11-18T02:14:01;14.87;;;4.23;;
21046;SDS011;10682;50.874;3.656;2023-11-18T02:16:31;17.47;;;4.30;;
21046;SDS011;10682;50.874;3.656;2023-11-18T02:18:59;15.77;;;4.07;;
21046;SDS011;10682;50.874;3.656;2023-11-18T02:21:34;15.47;;;4.07;;
21046;SDS011;10682;50.874;3.656;2023-11-18T02:24:08;12.90;;;3.83;;
21046;SDS011;10682;50.874;3.656;2023-11-18T02:26:36;14.83;;;4.63;;
21046;SDS011;10682;50.874;3.656;2023-11-18T02:29:03;12.27;;;3.87;;
21046;SDS011;10682;50.874;3.656;2023-11-18T02:31:33;13.87;;;3.93;;
21046;SDS011;10682;50.874;3.656;2023-11-18T02:34:05;11.57;;;4.03;;
21046;SDS011;10682;50.874;3.656;2023-11-18T02:36:43;15.93;;;4.07;;
21046;SDS011;10682;50.874;3.656;2023-11-18T02:39:21;17.07;;;4.63;;
21046;SDS011;10682;50.874;3.656;2023-11-18T02:42:00;16.07;;;4.00;;
21046;SDS011;10682;50.874;3.656;2023-11-18T02:44:29;19.87;;;4.90;;
21046;SDS011;10682;50.874;3.656;2023-11-18T02:46:58;14.87;;;4.20;;
21046;SDS011;10682;50.874;3.656;2023-11-18T02:49:26;12.67;;;4.70;;
21046;SDS011;10682;50.874;3.656;2023-11-18T02:51:54;14.47;;;4.70;;
21046;SDS011;10682;50.874;3.656;2023-11-18T02:54:21;12.13;;;4.47;;
21046;SDS011;10682;50.874;3.656;2023-11-18T02:56:49;13.03;;;4.27;;
21046;SDS011;10682;50.874;3.656;2023-11-18T02:59:16;17.33;;;4.60;;
21046;SDS011;10682;50.874;3.656;2023-11-18T03:01:43;13.30;;;4.57;;
21046;SDS011;10682;50.874;3.656;2023-11-18T03:04:10;14.83;;;4.83;;
21046;SDS011;10682;50.874;3.656;2023-11-18T03:06:40;15.33;;;4.00;;
21046;SDS011;10682;50.874;3.656;2023-11-18T03:09:08;15.60;;;4.13;;
21046;SDS011;10682;50.874;3.656;2023-11-18T03:11:37;15.07;;;3.80;;
21046;SDS011;10682;50.874;3.656;2023-11-18T03:14:04;16.47;;;3.70;;
21046;SDS011;10682;50.874;3.656;2023-11-18T03:16:31;16.67;;;3.70;;
21046;SDS011;10682;50.874;3.656;2023-11-18T03:18:59;16.37;;;3.70;;
21046;SDS011;10682;50.874;3.656;2023-11-18T03:21:27;14.87;;;3.83;;
21046;SDS011;10682;50.874;3.656;2023-11-18T03:23:54;9.73;;;3.10;;
21046;SDS011;10682;50.874;3.656;2023-11-18T03:26:21;10.00;;;3.50;;
21046;SDS011;10682;50.874;3.656;2023-11-18T03:28:48;13.17;;;3.17;;
21046;SDS011;10682;50.874;3.656;2023-11-18T03:31:16;14.77;;;3.30;;
21046;SDS011;10682;50.874;3.656;2023-11-18T03:33:43;13.10;;;3.70;;
21046;SDS011;10682;50.874;3.656;2023-11-18T03:36:13;26.03;;;4.03;;
21046;SDS011;10682;50.874;3.656;2023-11-18T03:38:44;14.33;;;3.47;;
21046;SDS011;10682;50.874;3.656;2023-11-18T03:41:11;14.87;;;3.10;;
21046;SDS011;10682;50.874;3.656;2023-11-18T03:43:39;9.23;;;2.90;;
21046;SDS011;10682;50.874;3.656;2023-11-18T03:46:09;13.33;;;2.90;;
21046;SDS011;10682;50.874;3.656;2023-11-18T03:48:37;12.90;;;3.00;;
21046;SDS011;10682;50.874;3.656;2023-11-18T03:51:04;9.63;;;3.27;;
21046;SDS011;10682;50.874;3.656;2023-11-18T03:53:31;12.47;;;2.77;;
21046;SDS011;10682;50.874;3.656;2023-11-18T03:56:00;16.83;;;3.13;;
21046;SDS011;10682;50.874;3.656;2023-11-18T03:58:29;19.07;;;3.40;;
21046;SDS011;10682;50.874;3.656;2023-11-18T04:00:59;10.50;;;3.30;;
21046;SDS011;10682;50.874;3.656;2023-11-18T04:03:33;19.03;;;3.43;;
21046;SDS011;10682;50.874;3.656;2023-11-18T04:06:00;13.47;;;3.03;;
21046;SDS011;10682;50.874;3.656;2023-11-18T04:08:27;12.17;;;2.77;;
21046;SDS011;10682;50.874;3.656;2023-11-18T04:10:54;15.17;;;3.20;;
21046;SDS011;10682;50.874;3.656;2023-11-18T04:13:21;13.40;;;2.87;;
21046;SDS011;10682;50.874;3.656;2023-11-18T04:15:48;17.07;;;2.80;;
21046;SDS011;10682;50.874;3.656;2023-11-18T04:18:15;13.53;;;2.70;;
21046;SDS011;10682;50.874;3.656;2023-11-18T04:20:43;9.63;;;2.80;;
21046;SDS011;10682;50.874;3.656;2023-11-18T04:23:10;18.20;;;3.00;;
21046;SDS011;10682;50.874;3.656;2023-11-18T04:25:38;10.67;;;2.80;;
21046;SDS011;10682;50.874;3.656;2023-11-18T04:28:05;10.77;;;2.70;;
21046;SDS011;10682;50.874;3.656;2023-11-18T04:30:32;12.07;;;2.50;;
21046;SDS011;10682;50.874;3.656;2023-11-18T04:32:59;13.43;;;3.00;;
21046;SDS011;10682;50.874;3.656;2023-11-18T04:35:26;15.37;;;2.80;;
21046;SDS011;10682;50.874;3.656;2023-11-18T04:37:53;11.70;;;2.87;;
21046;SDS011;10682;50.874;3.656;2023-11-18T04:40:21;8.40;;;2.77;;
21046;SDS011;10682;50.874;3.656;2023-11-18T04:42:49;13.57;;;2.90;;
21046;SDS011;10682;50.874;3.656;2023-11-18T04:45:17;15.20;;;3.10;;
21046;SDS011;10682;50.874;3.656;2023-11-18T04:47:44;13.70;;;3.70;;
21046;SDS011;10682;50.874;3.656;2023-11-18T04:50:13;12.60;;;3.50;;
21046;SDS011;10682;50.874;3.656;2023-11-18T04:52:40;15.53;;;4.07;;
21046;SDS011;10682;50.874;3.656;2023-11-18T04:55:08;13.73;;;3.30;;
21046;SDS011;10682;50.874;3.656;2023-11-18T04:57:36;13.23;;;3.00;;
21046;SDS011;10682;50.874;3.656;2023-11-18T05:00:05;12.13;;;3.27;;
21046;SDS011;10682;50.874;3.656;2023-11-18T05:02:40;22.07;;;4.70;;
21046;SDS011;10682;50.874;3.656;2023-11-18T05:05:11;12.13;;;3.70;;
21046;SDS011;10682;50.874;3.656;2023-11-18T05:07:38;11.70;;;3.63;;
21046;SDS011;10682;50.874;3.656;2023-11-18T05:10:07;10.03;;;3.37;;
21046;SDS011;10682;50.874;3.656;2023-11-18T05:12:35;14.20;;;3.80;;
21046;SDS011;10682;50.874;3.656;2023-11-18T05:15:04;13.17;;;3.40;;
21046;SDS011;10682;50.874;3.656;2023-11-18T05:17:36;15.27;;;3.63;;
21046;SDS011;10682;50.874;3.656;2023-11-18T05:20:05;14.17;;;3.70;;
21046;SDS011;10682;50.874;3.656;2023-11-18T05:22:37;8.70;;;3.57;;
21046;SDS011;10682;50.874;3.656;2023-11-18T05:25:04;10.60;;;3.57;;
21046;SDS011;10682;50.874;3.656;2023-11-18T05:27:32;14.63;;;3.63;;
21046;SDS011;10682;50.874;3.656;2023-11-18T05:29:59;11.27;;;3.33;;
21046;SDS011;10682;50.874;3.656;2023-11-18T05:32:26;14.50;;;3.30;;
21046;SDS011;10682;50.874;3.656;2023-11-18T05:34:54;15.40;;;3.40;;
21046;SDS011;10682;50.874;3.656;2023-11-18T05:37:24;14.67;;;3.50;;
21046;SDS011;10682;50.874;3.656;2023-11-18T05:39:51;12.97;;;3.30;;
21046;SDS011;10682;50.874;3.656;2023-11-18T05:42:20;11.33;;;3.00;;
21046;SDS011;10682;50.874;3.656;2023-11-18T05:44:47;16.00;;;3.93;;
21046;SDS011;10682;50.874;3.656;2023-11-18T05:47:15;13.87;;;3.57;;
21046;SDS011;10682;50.874;3.656;2023-11-18T05:49:43;15.77;;;3.87;;
21046;SDS011;10682;50.874;3.656;2023-11-18T05:52:10;9.13;;;3.17;;
21046;SDS011;10682;50.874;3.656;2023-11-18T05:54:38;14.83;;;3.40;;
21046;SDS011;10682;50.874;3.656;2023-11-18T05:57:05;8.87;;;2.97;;
21046;SDS011;10682;50.874;3.656;2023-11-18T05:59:32;19.50;;;4.03;;
21046;SDS011;10682;50.874;3.656;2023-11-18T06:01:59;14.30;;;3.50;;
21046;SDS011;10682;50.874;3.656;2023-11-18T06:04:26;9.07;;;3.13;;
21046;SDS011;10682;50.874;3.656;2023-11-18T06:06:58;9.93;;;3.40;;
21046;SDS011;10682;50.874;3.656;2023-11-18T06:09:25;14.07;;;3.53;;
21046;SDS011;10682;50.874;3.656;2023-11-18T06:11:54;15.73;;;3.40;;
21046;SDS011;10682;50.874;3.656;2023-11-18T06:14:23;10.03;;;2.90;;
21046;SDS011;10682;50.874;3.656;2023-11-18T06:16:52;17.93;;;3.33;;
21046;SDS011;10682;50.874;3.656;2023-11-18T06:19:20;11.60;;;3.27;;
21046;SDS011;10682;50.874;3.656;2023-11-18T06:21:48;12.67;;;2.97;;
21046;SDS011;10682;50.874;3.656;2023-11-18T06:24:16;14.47;;;2.70;;
21046;SDS011;10682;50.874;3.656;2023-11-18T06:26:45;13.80;;;3.17;;
21046;SDS011;10682;50.874;3.656;2023-11-18T06:29:13;13.50;;;3.10;;
21046;SDS011;10682;50.874;3.656;2023-11-18T06:31:41;12.43;;;2.77;;
21046;SDS011;10682;50.874;3.656;2023-11-18T06:34:09;13.27;;;3.00;;
21046;SDS011;10682;50.874;3.656;2023-11-18T06:36:36;11.90;;;3.07;;
21046;SDS011;10682;50.874;3.656;2023-11-18T06:39:03;22.60;;;4.53;;
21046;SDS011;10682;50.874;3.656;2023-11-18T06:41:33;10.67;;;2.73;;
21046;SDS011;10682;50.874;3.656;2023-11-18T06:44:01;12.03;;;2.90;;
21046;SDS011;10682;50.874;3.656;2023-11-18T06:46:35;13.80;;;3.07;;
21046;SDS011;10682;50.874;3.656;2023-11-18T06:49:07;13.30;;;2.93;;
21046;SDS011;10682;50.874;3.656;2023-11-18T06:51:37;12.17;;;2.87;;
21046;SDS011;10682;50.874;3.656;2023-11-18T06:54:05;14.93;;;3.13;;
21046;SDS011;10682;50.874;3.656;2023-11-18T06:56:37;9.40;;;2.93;;
21046;SDS011;10682;50.874;3.656;2023-11-18T06:59:12;13.37;;;3.23;;
21046;SDS011;10682;50.874;3.656;2023-11-18T07:01:42;12.13;;;3.40;;
21046;SDS011;10682;50.874;3.656;2023-11-18T07:04:15;16.20;;;3.17;;
21046;SDS011;10682;50.874;3.656;2023-11-18T07:06:42;13.43;;;3.00;;
21046;SDS011;10682;50.874;3.656;2023-11-18T07:09:11;11.20;;;3.20;;
21046;SDS011;10682;50.874;3.656;2023-11-18T07:11:47;15.07;;;3.03;;
21046;SDS011;10682;50.874;3.656;2023-11-18T07:14:17;15.53;;;2.93;;
21046;SDS011;10682;50.874;3.656;2023-11-18T07:16:44;9.20;;;2.97;;
21046;SDS011;10682;50.874;3.656;2023-11-18T07:19:12;11.77;;;3.00;;
21046;SDS011;10682;50.874;3.656;2023-11-18T07:21:49;11.33;;;3.23;;
21046;SDS011;10682;50.874;3.656;2023-11-18T07:24:17;13.97;;;3.37;;
21046;SDS011;10682;50.874;3.656;2023-11-18T07:26:44;14.03;;;3.30;;
21046;SDS011;10682;50.874;3.656;2023-11-18T07:29:12;10.87;;;3.10;;
21046;SDS011;10682;50.874;3.656;2023-11-18T07:31:39;11.43;;;3.53;;
21046;SDS011;10682;50.874;3.656;2023-11-18T07:34:06;13.30;;;3.57;;
21046;SDS011;10682;50.874;3.656;2023-11-18T07:36:34;11.87;;;3.20;;
21046;SDS011;10682;50.874;3.656;2023-11-18T07:39:01;13.53;;;3.60;;
21046;SDS011;10682;50.874;3.656;2023-11-18T07:41:32;11.83;;;3.37;;
21046;SDS011;10682;50.874;3.656;2023-11-18T07:43:59;14.33;;;3.93;;
21046;SDS011;10682;50.874;3.656;2023-11-18T07:46:28;18.27;;;3.47;;
21046;SDS011;10682;50.874;3.656;2023-11-18T07:48:57;15.70;;;3.40;;
21046;SDS011;10682;50.874;3.656;2023-11-18T07:51:26;15.03;;;3.60;;
21046;SDS011;10682;50.874;3.656;2023-11-18T07:56:55;12.37;;;3.57;;
21046;SDS011;10682;50.874;3.656;2023-11-18T08:02:49;10.27;;;3.97;;
21046;SDS011;10682;50.874;3.656;2023-11-18T08:05:16;13.03;;;4.40;;
21046;SDS011;10682;50.874;3.656;2023-11-18T08:07:45;14.27;;;4.70;;
21046;SDS011;10682;50.874;3.656;2023-11-18T08:10:13;15.07;;;4.97;;
21046;SDS011;10682;50.874;3.656;2023-11-18T08:12:46;16.20;;;4.93;;
21046;SDS011;10682;50.874;3.656;2023-11-18T08:15:13;19.23;;;5.13;;
21046;SDS011;10682;50.874;3.656;2023-11-18T08:17:41;20.63;;;5.83;;
21046;SDS011;10682;50.874;3.656;2023-11-18T08:20:08;17.63;;;4.67;;
21046;SDS011;10682;50.874;3.656;2023-11-18T08:22:56;15.53;;;5.07;;
21046;SDS011;10682;50.874;3.656;2023-11-18T08:25:27;11.27;;;4.40;;
21046;SDS011;10682;50.874;3.656;2023-11-18T08:27:55;14.27;;;5.53;;
21046;SDS011;10682;50.874;3.656;2023-11-18T08:30:22;13.90;;;5.13;;
21046;SDS011;10682;50.874;3.656;2023-11-18T08:32:59;17.93;;;6.33;;
21046;SDS011;10682;50.874;3.656;2023-11-18T08:35:30;14.93;;;6.20;;
21046;SDS011;10682;50.874;3.656;2023-11-18T08:37:57;13.70;;;6.50;;
21046;SDS011;10682;50.874;3.656;2023-11-18T08:40:25;14.60;;;5.87;;
21046;SDS011;10682;50.874;3.656;2023-11-18T08:42:53;14.80;;;6.47;;
21046;SDS011;10682;50.874;3.656;2023-11-18T08:45:23;15.43;;;6.20;;
21046;SDS011;10682;50.874;3.656;2023-11-18T08:48:00;14.60;;;6.40;;
21046;SDS011;10682;50.874;3.656;2023-11-18T08:50:30;13.73;;;6.37;;
21046;SDS011;10682;50.874;3.656;2023-11-18T08:52:58;14.20;;;6.13;;
21046;SDS011;10682;50.874;3.656;2023-11-18T08:55:26;16.27;;;6.40;;
21046;SDS011;10682;50.874;3.656;2023-11-18T08:58:09;18.13;;;7.70;;
21046;SDS011;10682;50.874;3.656;2023-11-18T09:01:01;15.20;;;6.53;;
21046;SDS011;10682;50.874;3.656;2023-11-18T09:03:33;15.83;;;6.57;;
21046;SDS011;10682;50.874;3.656;2023-11-18T09:06:04;12.63;;;6.00;;
21046;SDS011;10682;50.874;3.656;2023-11-18T09:08:44;17.00;;;6.20;;
21046;SDS011;10682;50.874;3.656;2023-11-18T09:11:21;15.93;;;5.90;;
21046;SDS011;10682;50.874;3.656;2023-11-18T09:13:51;15.67;;;6.47;;
21046;SDS011;10682;50.874;3.656;2023-11-18T09:16:26;20.03;;;7.00;;
21046;SDS011;10682;50.874;3.656;2023-11-18T09:18:56;14.13;;;6.77;;
21046;SDS011;10682;50.874;3.656;2023-11-18T09:21:28;19.13;;;6.73;;
21046;SDS011;10682;50.874;3.656;2023-11-18T09:24:00;17.90;;;6.47;;
21046;SDS011;10682;50.874;3.656;2023-11-18T09:26:31;12.50;;;6.47;;
21046;SDS011;10682;50.874;3.656;2023-11-18T09:28:58;24.70;;;9.83;;
21046;SDS011;10682;50.874;3.656;2023-11-18T09:31:47;14.13;;;6.10;;
21046;SDS011;10682;50.874;3.656;2023-11-18T09:34:15;16.83;;;6.33;;
21046;SDS011;10682;50.874;3.656;2023-11-18T09:36:48;16.63;;;7.53;;
21046;SDS011;10682;50.874;3.656;2023-11-18T09:39:15;15.33;;;7.80;;
21046;SDS011;10682;50.874;3.656;2023-11-18T09:41:55;17.57;;;7.13;;
21046;SDS011;10682;50.874;3.656;2023-11-18T09:44:23;16.10;;;6.93;;
21046;SDS011;10682;50.874;3.656;2023-11-18T09:46:56;12.77;;;5.90;;
21046;SDS011;10682;50.874;3.656;2023-11-18T09:49:34;11.30;;;6.37;;
21046;SDS011;10682;50.874;3.656;2023-11-18T09:52:13;13.73;;;5.90;;
21046;SDS011;10682;50.874;3.656;2023-11-18T09:54:54;11.27;;;6.07;;
21046;SDS011;10682;50.874;3.656;2023-11-18T09:57:31;11.77;;;6.37;;
21046;SDS011;10682;50.874;3.656;2023-11-18T10:00:07;8.73;;;5.67;;
21046;SDS011;10682;50.874;3.656;2023-11-18T10:02:48;10.37;;;4.53;;
21046;SDS011;10682;50.874;3.656;2023-11-18T10:05:21;10.37;;;4.70;;
21046;SDS011;10682;50.874;3.656;2023-11-18T10:07:53;9.37;;;4.00;;
21046;SDS011;10682;50.874;3.656;2023-11-18T10:10:20;8.67;;;3.80;;
21046;SDS011;10682;50.874;3.656;2023-11-18T10:12:48;7.83;;;3.67;;
21046;SDS011;10682;50.874;3.656;2023-11-18T10:15:20;9.20;;;4.33;;
21046;SDS011;10682;50.874;3.656;2023-11-18T10:17:51;8.43;;;2.93;;
21046;SDS011;10682;50.874;3.656;2023-11-18T10:23:08;5.87;;;3.27;;
21046;SDS011;10682;50.874;3.656;2023-11-18T10:25:47;7.37;;;2.70;;
21046;SDS011;10682;50.874;3.656;2023-11-18T10:28:33;7.93;;;3.00;;
21046;SDS011;10682;50.874;3.656;2023-11-18T10:31:07;7.67;;;2.50;;
21046;SDS011;10682;50.874;3.656;2023-11-18T10:33:41;4.20;;;2.40;;
21046;SDS011;10682;50.874;3.656;2023-11-18T10:36:22;6.47;;;2.60;;
21046;SDS011;10682;50.874;3.656;2023-11-18T10:38:52;5.50;;;2.80;;
21046;SDS011;10682;50.874;3.656;2023-11-18T10:41:23;5.07;;;2.73;;
21046;SDS011;10682;50.874;3.656;2023-11-18T10:44:05;3.97;;;2.40;;
21046;SDS011;10682;50.874;3.656;2023-11-18T10:46:34;5.33;;;2.60;;
21046;SDS011;10682;50.874;3.656;2023-11-18T10:49:02;4.40;;;2.30;;
21046;SDS011;10682;50.874;3.656;2023-11-18T10:51:36;3.60;;;1.90;;
21046;SDS011;10682;50.874;3.656;2023-11-18T10:54:07;3.57;;;2.20;;
21046;SDS011;10682;50.874;3.656;2023-11-18T10:56:45;3.43;;;2.03;;
21046;SDS011;10682;50.874;3.656;2023-11-18T10:59:15;4.83;;;2.10;;
21046;SDS011;10682;50.874;3.656;2023-11-18T11:01:43;4.23;;;2.40;;
21046;SDS011;10682;50.874;3.656;2023-11-18T11:04:11;5.67;;;2.20;;
21046;SDS011;10682;50.874;3.656;2023-11-18T11:06:44;3.13;;;1.50;;
21046;SDS011;10682;50.874;3.656;2023-11-18T11:09:24;5.07;;;1.80;;
21046;SDS011;10682;50.874;3.656;2023-11-18T11:11:55;2.73;;;1.47;;
21046;SDS011;10682;50.874;3.656;2023-11-18T11:14:32;3.20;;;1.70;;
21046;SDS011;10682;50.874;3.656;2023-11-18T11:17:08;2.93;;;1.43;;
21046;SDS011;10682;50.874;3.656;2023-11-18T11:19:54;4.37;;;1.63;;
21046;SDS011;10682;50.874;3.656;2023-11-18T11:23:02;2.43;;;1.30;;
21046;SDS011;10682;50.874;3.656;2023-11-18T11:28:42;3.13;;;1.80;;
21046;SDS011;10682;50.874;3.656;2023-11-18T11:31:37;3.57;;;1.97;;
21046;SDS011;10682;50.874;3.656;2023-11-18T11:34:19;2.67;;;1.60;;
21046;SDS011;10682;50.874;3.656;2023-11-18T11:36:51;3.90;;;1.90;;
21046;SDS011;10682;50.874;3.656;2023-11-18T11:39:21;3.47;;;1.93;;
21046;SDS011;10682;50.874;3.656;2023-11-18T11:41:52;2.20;;;1.60;;
21046;SDS011;10682;50.874;3.656;2023-11-18T11:44:25;2.87;;;1.60;;
21046;SDS011;10682;50.874;3.656;2023-11-18T11:46:58;2.97;;;1.80;;
21046;SDS011;10682;50.874;3.656;2023-11-18T11:49:33;2.67;;;1.60;;
21046;SDS011;10682;50.874;3.656;2023-11-18T11:52:31;5.37;;;1.67;;
21046;SDS011;10682;50.874;3.656;2023-11-18T11:58:34;3.47;;;1.50;;
21046;SDS011;10682;50.874;3.656;2023-11-18T12:04:04;2.63;;;1.33;;
21046;SDS011;10682;50.874;3.656;2023-11-18T12:06:41;3.67;;;1.53;;
21046;SDS011;10682;50.874;3.656;2023-11-18T12:09:10;1.93;;;1.33;;
21046;SDS011;10682;50.874;3.656;2023-11-18T12:11:46;2.40;;;1.60;;
21046;SDS011;10682;50.874;3.656;2023-11-18T12:14:17;3.77;;;1.40;;
21046;SDS011;10682;50.874;3.656;2023-11-18T12:19:39;2.93;;;1.43;;
21046;SDS011;10682;50.874;3.656;2023-11-18T12:22:15;3.17;;;1.30;;
21046;SDS011;10682;50.874;3.656;2023-11-18T12:24:45;2.57;;;1.50;;
21046;SDS011;10682;50.874;3.656;2023-11-18T12:33:01;1.90;;;1.20;;
21046;SDS011;10682;50.874;3.656;2023-11-18T12:35:51;2.57;;;1.30;;
21046;SDS011;10682;50.874;3.656;2023-11-18T12:41:25;1.87;;;1.23;;
21046;SDS011;10682;50.874;3.656;2023-11-18T12:47:06;3.27;;;1.23;;
21046;SDS011;10682;50.874;3.656;2023-11-18T12:49:41;4.93;;;1.30;;
21046;SDS011;10682;50.874;3.656;2023-11-18T12:52:15;2.00;;;1.10;;
21046;SDS011;10682;50.874;3.656;2023-11-18T12:54:45;2.47;;;1.30;;
21046;SDS011;10682;50.874;3.656;2023-11-18T12:57:20;2.40;;;1.03;;
21046;SDS011;10682;50.874;3.656;2023-11-18T12:59:50;2.70;;;1.20;;
21046;SDS011;10682;50.874;3.656;2023-11-18T13:02:18;2.17;;;1.10;;
21046;SDS011;10682;50.874;3.656;2023-11-18T13:04:50;1.33;;;1.00;;
21046;SDS011;10682;50.874;3.656;2023-11-18T13:07:19;1.40;;;1.10;;
21046;SDS011;10682;50.874;3.656;2023-11-18T13:09:47;1.60;;;1.00;;
21046;SDS011;10682;50.874;3.656;2023-11-18T13:12:16;2.30;;;1.00;;
21046;SDS011;10682;50.874;3.656;2023-11-18T13:14:46;1.60;;;1.10;;
21046;SDS011;10682;50.874;3.656;2023-11-18T13:17:15;1.23;;;1.10;;
21046;SDS011;10682;50.874;3.656;2023-11-18T13:19:43;1.83;;;1.20;;
21046;SDS011;10682;50.874;3.656;2023-11-18T13:22:12;2.67;;;1.00;;
21046;SDS011;10682;50.874;3.656;2023-11-18T13:24:41;1.40;;;1.00;;
21046;SDS011;10682;50.874;3.656;2023-11-18T13:27:15;1.63;;;1.10;;
21046;SDS011;10682;50.874;3.656;2023-11-18T13:29:44;2.20;;;1.37;;
21046;SDS011;10682;50.874;3.656;2023-11-18T13:32:17;2.13;;;1.13;;
21046;SDS011;10682;50.874;3.656;2023-11-18T13:34:50;2.13;;;1.43;;
21046;SDS011;10682;50.874;3.656;2023-11-18T13:37:18;2.77;;;1.70;;
21046;SDS011;10682;50.874;3.656;2023-11-18T13:39:55;4.20;;;1.53;;
21046;SDS011;10682;50.874;3.656;2023-11-18T13:42:26;3.57;;;1.43;;
21046;SDS011;10682;50.874;3.656;2023-11-18T13:45:02;2.07;;;1.50;;
21046;SDS011;10682;50.874;3.656;2023-11-18T13:47:38;1.77;;;1.40;;
21046;SDS011;10682;50.874;3.656;2023-11-18T13:50:06;1.87;;;1.50;;
21046;SDS011;10682;50.874;3.656;2023-11-18T13:52:36;2.17;;;1.33;;
21046;SDS011;10682;50.874;3.656;2023-11-18T13:55:06;1.80;;;1.50;;
21046;SDS011;10682;50.874;3.656;2023-11-18T13:57:36;1.80;;;1.40;;
21046;SDS011;10682;50.874;3.656;2023-11-18T14:00:07;2.53;;;1.63;;
21046;SDS011;10682;50.874;3.656;2023-11-18T14:02:42;3.27;;;1.87;;
21046;SDS011;10682;50.874;3.656;2023-11-18T14:05:15;3.10;;;2.17;;
21046;SDS011;10682;50.874;3.656;2023-11-18T14:07:44;3.87;;;2.43;;
21046;SDS011;10682;50.874;3.656;2023-11-18T14:10:14;2.37;;;1.90;;
21046;SDS011;10682;50.874;3.656;2023-11-18T14:12:59;5.50;;;2.40;;
21046;SDS011;10682;50.874;3.656;2023-11-18T14:15:29;2.97;;;2.00;;
21046;SDS011;10682;50.874;3.656;2023-11-18T14:17:57;2.93;;;2.20;;
21046;SDS011;10682;50.874;3.656;2023-11-18T14:20:24;4.00;;;2.60;;
21046;SDS011;10682;50.874;3.656;2023-11-18T14:22:51;5.33;;;2.80;;
21046;SDS011;10682;50.874;3.656;2023-11-18T14:25:21;4.80;;;2.40;;
21046;SDS011;10682;50.874;3.656;2023-11-18T14:27:59;4.80;;;2.50;;
21046;SDS011;10682;50.874;3.656;2023-11-18T14:30:37;7.33;;;3.10;;
21046;SDS011;10682;50.874;3.656;2023-11-18T14:33:04;5.40;;;3.07;;
21046;SDS011;10682;50.874;3.656;2023-11-18T14:35:33;8.00;;;4.23;;
21046;SDS011;10682;50.874;3.656;2023-11-18T14:38:01;7.80;;;4.83;;
21046;SDS011;10682;50.874;3.656;2023-11-18T14:40:29;8.20;;;4.70;;
21046;SDS011;10682;50.874;3.656;2023-11-18T14:42:56;9.97;;;5.37;;
21046;SDS011;10682;50.874;3.656;2023-11-18T14:45:24;10.77;;;5.63;;
21046;SDS011;10682;50.874;3.656;2023-11-18T14:47:51;13.13;;;6.67;;
21046;SDS011;10682;50.874;3.656;2023-11-18T14:50:19;15.80;;;7.07;;
21046;SDS011;10682;50.874;3.656;2023-11-18T14:52:47;12.03;;;6.67;;
21046;SDS011;10682;50.874;3.656;2023-11-18T14:55:18;11.07;;;6.30;;
21046;SDS011;10682;50.874;3.656;2023-11-18T14:57:45;12.37;;;6.37;;
21046;SDS011;10682;50.874;3.656;2023-11-18T15:00:13;13.60;;;6.87;;
21046;SDS011;10682;50.874;3.656;2023-11-18T15:02:48;7.80;;;5.47;;
21046;SDS011;10682;50.874;3.656;2023-11-18T15:05:31;8.83;;;5.83;;
21046;SDS011;10682;50.874;3.656;2023-11-18T15:07:58;10.93;;;6.57;;
21046;SDS011;10682;50.874;3.656;2023-11-18T15:10:27;11.27;;;7.57;;
21046;SDS011;10682;50.874;3.656;2023-11-18T15:12:55;8.53;;;5.73;;
21046;SDS011;10682;50.874;3.656;2023-11-18T15:15:25;8.27;;;5.63;;
21046;SDS011;10682;50.874;3.656;2023-11-18T15:18:02;8.80;;;6.00;;
21046;SDS011;10682;50.874;3.656;2023-11-18T15:20:32;8.00;;;5.60;;
21046;SDS011;10682;50.874;3.656;2023-11-18T15:23:01;10.53;;;5.43;;
21046;SDS011;10682;50.874;3.656;2023-11-18T15:25:29;5.97;;;4.43;;
21046;SDS011;10682;50.874;3.656;2023-11-18T15:27:56;6.50;;;4.33;;
21046;SDS011;10682;50.874;3.656;2023-11-18T15:30:23;6.27;;;5.07;;